Time;durP1;ratioP1;P1;durP2;ratioP2;P2;SDS_P1;SDS_P2;PMS_P1;PMS_P2;Temp;Humidity;BMP_temperature;BMP_pressure;BME280_temperature;BME280_humidity;BME280_pressure;Samples;Min_cycle;Max_cycle;Signal;HPM_P1;HPM_P2
2021/08/09 00:01:16;;;;;;;10.52;2.65;;;13.60;99.90;;;;;;5049285;28;20112;-57
2021/08/09 00:03:42;;;;;;;10.38;3.25;;;13.60;99.90;;;;;;5050837;28;20025;-58
2021/08/09 00:06:08;;;;;;;8.65;3.03;;;13.60;99.90;;;;;;5051790;28;20037;-57
2021/08/09 00:08:33;;;;;;;8.90;2.92;;;13.60;99.90;;;;;;5032857;28;20511;-59
2021/08/09 00:10:59;;;;;;;9.13;3.15;;;13.60;99.90;;;;;;5051063;28;20029;-57
2021/08/09 00:13:25;;;;;;;6.25;3.05;;;13.70;99.90;;;;;;5051134;28;20025;-58
2021/08/09 00:15:50;;;;;;;7.03;3.15;;;13.70;99.90;;;;;;5050969;28;20108;-56
2021/08/09 00:18:17;;;;;;;11.82;3.80;;;13.70;99.90;;;;;;5050538;28;20037;-56
2021/08/09 00:20:43;;;;;;;9.98;2.58;;;13.80;99.90;;;;;;5053110;28;20032;-57
2021/08/09 00:23:09;;;;;;;8.80;2.40;;;13.80;99.90;;;;;;5050971;28;20037;-59
2021/08/09 00:25:34;;;;;;;7.28;2.70;;;13.80;99.90;;;;;;5050317;28;20032;-60
2021/08/09 00:28:00;;;;;;;8.25;2.80;;;13.90;99.90;;;;;;5050882;28;20048;-59
2021/08/09 00:30:26;;;;;;;12.20;3.15;;;14.00;99.90;;;;;;5048345;28;20028;-57
2021/08/09 00:32:51;;;;;;;6.63;2.40;;;14.00;99.90;;;;;;5044752;28;20025;-57
2021/08/09 00:35:17;;;;;;;4.07;2.10;;;14.10;99.90;;;;;;5049560;28;20033;-59
2021/08/09 00:37:43;;;;;;;5.97;2.95;;;14.10;99.90;;;;;;5036060;28;20028;-61
2021/08/09 00:40:09;;;;;;;7.45;2.42;;;14.10;99.90;;;;;;5048931;28;20502;-58
2021/08/09 00:42:34;;;;;;;10.90;3.17;;;14.10;99.90;;;;;;5049343;28;20032;-60
2021/08/09 00:45:00;;;;;;;4.80;2.00;;;14.10;99.90;;;;;;5049170;28;20032;-57
2021/08/09 00:47:26;;;;;;;5.25;2.70;;;14.10;99.90;;;;;;5048719;28;20037;-59
2021/08/09 00:49:51;;;;;;;6.38;2.33;;;14.20;99.90;;;;;;5049673;28;20450;-59
2021/08/09 00:52:17;;;;;;;7.07;2.30;;;14.10;99.90;;;;;;5050453;28;20423;-57
2021/08/09 00:54:43;;;;;;;7.28;3.03;;;14.10;99.90;;;;;;5049841;28;20503;-57
2021/08/09 00:57:09;;;;;;;8.60;2.70;;;14.10;99.90;;;;;;5050503;28;20075;-57
2021/08/09 00:59:35;;;;;;;6.45;2.55;;;14.10;99.90;;;;;;5046523;28;20563;-56
2021/08/09 01:02:02;;;;;;;3.97;2.22;;;14.10;99.90;;;;;;5045967;28;20447;-58
2021/08/09 01:04:27;;;;;;;9.65;2.45;;;14.00;99.90;;;;;;5032282;28;20029;-57
2021/08/09 01:06:53;;;;;;;5.63;2.38;;;14.00;99.90;;;;;;5050137;28;20040;-61
2021/08/09 01:09:27;;;;;;;10.05;2.60;;;14.00;99.90;;;;;;5049473;28;20033;-60
2021/08/09 01:11:59;;;;;;;7.97;2.65;;;14.00;99.90;;;;;;5045896;28;20147;-60
2021/08/09 01:14:31;;;;;;;3.30;1.90;;;14.00;99.90;;;;;;5050243;28;20098;-60
2021/08/09 01:16:58;;;;;;;6.15;2.25;;;14.00;99.90;;;;;;5049310;28;20025;-61
2021/08/09 01:19:24;;;;;;;5.13;2.58;;;14.00;99.90;;;;;;5045870;28;20476;-58
2021/08/09 01:21:53;;;;;;;6.97;2.85;;;13.90;99.90;;;;;;5050166;28;20025;-57
2021/08/09 01:24:24;;;;;;;9.18;2.55;;;13.80;99.90;;;;;;5050160;28;20538;-59
2021/08/09 01:26:53;;;;;;;4.50;2.15;;;13.80;99.90;;;;;;5048824;28;20087;-56
2021/08/09 01:29:27;;;;;;;4.32;2.65;;;13.70;99.90;;;;;;5048975;28;20086;-57
2021/08/09 01:31:54;;;;;;;7.20;2.55;;;13.60;99.90;;;;;;5049527;28;20459;-58
2021/08/09 01:34:21;;;;;;;13.23;3.13;;;13.60;99.90;;;;;;5048874;28;20041;-59
2021/08/09 01:36:50;;;;;;;11.93;2.42;;;13.50;99.90;;;;;;5049542;28;20013;-58
2021/08/09 01:39:17;;;;;;;5.47;2.33;;;13.50;99.90;;;;;;5049075;28;20416;-58
2021/08/09 01:41:43;;;;;;;8.27;2.58;;;13.50;99.90;;;;;;5050047;28;20039;-58
2021/08/09 01:44:11;;;;;;;9.20;2.70;;;13.40;99.90;;;;;;5049154;28;20399;-58
2021/08/09 01:46:37;;;;;;;5.88;2.38;;;13.40;99.90;;;;;;5045006;28;20021;-57
2021/08/09 01:49:05;;;;;;;8.40;2.97;;;13.40;99.90;;;;;;5045974;28;20096;-60
2021/08/09 01:51:33;;;;;;;11.90;2.53;;;13.40;99.90;;;;;;5047038;28;20037;-60
2021/08/09 01:54:00;;;;;;;11.15;3.03;;;13.40;99.90;;;;;;5048621;28;20480;-58
2021/08/09 01:56:26;;;;;;;6.00;2.90;;;13.40;99.90;;;;;;5048735;28;20025;-56
2021/08/09 01:58:51;;;;;;;11.50;2.40;;;13.40;99.90;;;;;;5046907;28;20017;-60
2021/08/09 02:01:18;;;;;;;4.80;2.15;;;13.40;99.90;;;;;;5046822;28;20392;-59
2021/08/09 02:03:44;;;;;;;8.05;2.78;;;13.40;99.90;;;;;;5046793;28;20029;-60
2021/08/09 02:06:10;;;;;;;8.50;2.50;;;13.40;99.90;;;;;;5045503;28;20025;-58
2021/08/09 02:08:36;;;;;;;7.60;2.90;;;13.30;99.90;;;;;;5045127;28;20037;-60
2021/08/09 02:11:13;;;;;;;5.32;2.60;;;13.30;99.90;;;;;;5047145;28;20029;-58
2021/08/09 02:13:54;;;;;;;9.50;2.58;;;13.30;99.90;;;;;;5043805;28;20028;-58
2021/08/09 02:16:34;;;;;;;13.98;2.50;;;13.30;99.90;;;;;;5047625;28;20028;-59
2021/08/09 02:19:05;;;;;;;5.75;2.70;;;13.20;99.90;;;;;;5046912;28;20492;-59
2021/08/09 02:21:41;;;;;;;9.45;3.13;;;13.20;99.90;;;;;;5048346;28;20029;-59
2021/08/09 02:24:10;;;;;;;5.57;2.60;;;13.20;99.90;;;;;;5047227;28;20036;-58
2021/08/09 02:26:48;;;;;;;7.70;2.38;;;13.20;99.90;;;;;;5046921;28;20395;-56
2021/08/09 02:29:19;;;;;;;7.43;2.75;;;13.30;99.90;;;;;;5045700;28;20079;-58
2021/08/09 02:31:48;;;;;;;6.75;2.78;;;13.30;99.90;;;;;;5042449;28;20562;-58
2021/08/09 02:34:15;;;;;;;7.30;3.03;;;13.30;99.90;;;;;;5047398;28;20024;-56
2021/08/09 02:36:42;;;;;;;7.18;2.53;;;13.40;99.90;;;;;;5035220;28;20025;-54
2021/08/09 02:39:09;;;;;;;7.80;2.53;;;13.40;99.90;;;;;;5041634;28;20044;-56
2021/08/09 02:41:35;;;;;;;6.07;2.90;;;13.40;99.90;;;;;;5045086;28;20029;-58
2021/08/09 02:44:01;;;;;;;6.93;2.60;;;13.50;99.90;;;;;;5045257;28;20579;-61
2021/08/09 02:46:28;;;;;;;9.00;2.42;;;13.50;99.90;;;;;;5031932;28;20056;-56
2021/08/09 02:48:54;;;;;;;5.47;2.10;;;13.50;99.90;;;;;;5062062;28;20028;-60
2021/08/09 02:51:20;;;;;;;11.70;2.33;;;13.50;99.90;;;;;;5052882;28;20074;-59
2021/08/09 02:53:48;;;;;;;7.78;2.47;;;13.50;99.90;;;;;;5044798;28;20021;-60
2021/08/09 02:56:15;;;;;;;6.93;2.40;;;13.50;99.90;;;;;;5041726;28;20036;-59
2021/08/09 02:58:40;;;;;;;5.65;2.63;;;13.50;99.90;;;;;;5042232;28;20088;-60
2021/08/09 03:01:07;;;;;;;4.88;2.45;;;13.50;99.90;;;;;;5049059;28;20032;-57
2021/08/09 03:03:35;;;;;;;9.90;2.30;;;13.50;99.90;;;;;;5048789;28;20387;-57
2021/08/09 03:06:01;;;;;;;11.23;2.40;;;13.40;99.90;;;;;;5051559;28;20608;-57
2021/08/09 03:08:28;;;;;;;6.97;2.40;;;13.50;99.90;;;;;;5049798;28;20108;-61
2021/08/09 03:10:54;;;;;;;6.68;2.15;;;13.50;99.90;;;;;;5045866;28;20020;-59
2021/08/09 03:13:24;;;;;;;6.60;2.80;;;13.50;99.90;;;;;;5047821;28;20021;-58
2021/08/09 03:15:51;;;;;;;9.73;2.33;;;13.50;99.90;;;;;;5048558;28;20079;-60
2021/08/09 03:18:17;;;;;;;8.48;2.67;;;13.50;99.90;;;;;;5043291;28;20506;-56
2021/08/09 03:20:43;;;;;;;8.35;2.70;;;13.50;99.90;;;;;;5052699;28;20059;-57
2021/08/09 03:23:09;;;;;;;7.70;3.55;;;13.60;99.90;;;;;;5050643;28;20749;-58
2021/08/09 03:25:36;;;;;;;7.82;2.55;;;13.60;99.90;;;;;;5045637;28;20556;-57
2021/08/09 03:28:02;;;;;;;13.07;2.40;;;13.60;99.90;;;;;;5051796;28;20411;-57
2021/08/09 03:30:28;;;;;;;8.45;2.70;;;13.60;99.90;;;;;;5051019;28;20462;-54
2021/08/09 03:32:54;;;;;;;8.88;2.70;;;13.60;99.90;;;;;;5042875;28;20049;-59
2021/08/09 03:35:21;;;;;;;11.82;2.40;;;13.60;99.90;;;;;;5040066;28;20029;-57
2021/08/09 03:37:46;;;;;;;7.38;2.10;;;13.50;99.90;;;;;;5048211;28;20016;-58
2021/08/09 03:40:12;;;;;;;7.50;2.72;;;13.50;99.90;;;;;;5046929;28;20091;-57
2021/08/09 03:42:38;;;;;;;9.98;2.78;;;13.40;99.90;;;;;;5046615;28;20084;-57
2021/08/09 03:45:05;;;;;;;9.13;3.00;;;13.40;99.90;;;;;;5044643;28;20924;-59
2021/08/09 03:47:31;;;;;;;5.15;2.35;;;13.30;99.90;;;;;;5048295;28;20055;-58
2021/08/09 03:49:56;;;;;;;6.85;2.58;;;13.30;99.90;;;;;;5045093;28;20427;-55
2021/08/09 03:52:22;;;;;;;7.18;2.80;;;13.20;99.90;;;;;;5051775;28;20373;-57
2021/08/09 03:54:47;;;;;;;3.42;2.10;;;13.20;99.90;;;;;;5045824;28;20392;-59
2021/08/09 03:57:13;;;;;;;6.65;2.60;;;13.20;99.90;;;;;;5049958;28;20510;-59
2021/08/09 03:59:38;;;;;;;7.22;2.63;;;13.20;99.90;;;;;;5034448;28;20045;-57
2021/08/09 04:02:04;;;;;;;3.60;2.17;;;13.20;99.90;;;;;;5045011;28;20036;-59
2021/08/09 04:04:30;;;;;;;6.65;2.20;;;13.30;99.90;;;;;;5044045;28;20026;-55
2021/08/09 04:06:55;;;;;;;6.63;2.53;;;13.30;99.90;;;;;;5049877;28;20068;-54
2021/08/09 04:09:21;;;;;;;8.57;2.50;;;13.30;99.90;;;;;;5051609;28;20033;-58
2021/08/09 04:11:46;;;;;;;10.93;2.85;;;13.30;99.90;;;;;;5050664;28;20082;-57
2021/08/09 04:14:12;;;;;;;7.78;2.50;;;13.30;99.90;;;;;;5037117;28;20110;-58
2021/08/09 04:16:37;;;;;;;5.18;2.45;;;13.30;99.90;;;;;;5050054;28;20029;-58
2021/08/09 04:19:03;;;;;;;6.90;2.30;;;13.30;99.90;;;;;;5049491;28;20558;-59
2021/08/09 04:21:29;;;;;;;6.88;2.38;;;13.20;99.90;;;;;;5049556;28;20452;-57
2021/08/09 04:23:54;;;;;;;6.57;2.30;;;13.30;99.90;;;;;;5049539;28;20081;-59
2021/08/09 04:26:20;;;;;;;6.57;2.40;;;13.30;99.90;;;;;;5046873;28;20082;-59
2021/08/09 04:28:47;;;;;;;4.82;2.42;;;13.20;99.90;;;;;;5048401;28;20034;-58
2021/08/09 04:31:12;;;;;;;5.40;2.13;;;13.20;99.90;;;;;;5039719;28;20029;-56
2021/08/09 04:33:46;;;;;;;8.13;2.55;;;13.20;99.90;;;;;;5049377;28;20036;-59
2021/08/09 04:36:12;;;;;;;6.90;2.47;;;13.20;99.90;;;;;;5047388;28;20036;-56
2021/08/09 04:38:38;;;;;;;6.40;2.20;;;13.20;99.90;;;;;;5052832;28;20108;-58
2021/08/09 04:41:07;;;;;;;7.78;2.58;;;13.20;99.90;;;;;;5049110;28;20115;-59
2021/08/09 04:43:37;;;;;;;3.50;2.13;;;13.20;99.90;;;;;;5045258;28;20048;-58
2021/08/09 04:46:02;;;;;;;6.53;2.30;;;13.20;99.90;;;;;;5045756;28;20484;-58
2021/08/09 04:48:28;;;;;;;6.82;2.63;;;13.30;99.90;;;;;;5048799;28;20037;-58
2021/08/09 04:50:54;;;;;;;8.32;2.70;;;13.30;99.90;;;;;;5047806;28;20025;-59
2021/08/09 04:53:19;;;;;;;5.57;2.58;;;13.40;99.90;;;;;;5048495;28;20032;-58
2021/08/09 04:55:45;;;;;;;5.15;2.03;;;13.40;99.90;;;;;;5046599;28;20032;-58
2021/08/09 04:58:10;;;;;;;5.18;2.30;;;13.50;99.90;;;;;;5048884;28;20104;-59
2021/08/09 05:00:36;;;;;;;5.00;2.53;;;13.60;99.90;;;;;;5034550;28;20106;-59
2021/08/09 05:03:01;;;;;;;5.43;2.47;;;13.70;99.90;;;;;;5043257;28;20029;-58
2021/08/09 05:05:27;;;;;;;4.85;2.45;;;13.80;99.90;;;;;;5045135;28;20047;-58
2021/08/09 05:07:54;;;;;;;7.28;2.13;;;14.00;99.90;;;;;;5046243;28;20044;-59
2021/08/09 05:10:20;;;;;;;3.05;1.80;;;14.20;99.90;;;;;;5048671;28;20043;-57
2021/08/09 05:12:45;;;;;;;6.78;2.90;;;14.30;99.90;;;;;;5043765;28;20092;-58
2021/08/09 05:15:11;;;;;;;5.57;2.08;;;14.40;99.90;;;;;;5045506;28;20155;-58
2021/08/09 05:17:37;;;;;;;4.95;1.70;;;14.70;99.90;;;;;;5048346;28;20082;-58
2021/08/09 05:20:05;;;;;;;5.50;2.03;;;15.00;99.90;;;;;;5047216;28;20021;-57
2021/08/09 05:22:31;;;;;;;6.43;2.17;;;15.20;99.90;;;;;;5047781;28;20028;-59
2021/08/09 05:24:56;;;;;;;4.53;1.75;;;15.50;99.90;;;;;;5047162;28;20045;-58
2021/08/09 05:27:22;;;;;;;3.67;1.50;;;15.80;99.90;;;;;;5043958;28;20044;-58
2021/08/09 05:29:47;;;;;;;4.15;1.85;;;16.00;99.90;;;;;;5047574;28;20083;-57
2021/08/09 05:32:13;;;;;;;9.43;1.80;;;16.20;99.90;;;;;;5048052;28;20029;-59
2021/08/09 05:34:41;;;;;;;2.35;1.40;;;16.40;99.90;;;;;;5041266;28;20029;-57
2021/08/09 05:37:07;;;;;;;5.75;1.60;;;17.40;99.90;;;;;;5045693;28;20083;-58
2021/08/09 05:39:34;;;;;;;4.00;1.40;;;18.40;99.90;;;;;;5045484;28;20446;-58
2021/08/09 05:42:00;;;;;;;5.30;1.50;;;18.50;99.90;;;;;;5045307;28;20024;-57
2021/08/09 05:44:25;;;;;;;4.43;1.52;;;18.30;99.90;;;;;;5047298;28;20020;-58
2021/08/09 05:46:51;;;;;;;19.15;2.55;;;17.90;99.90;;;;;;5048155;28;20028;-59
2021/08/09 05:49:17;;;;;;;7.03;1.55;;;17.30;99.90;;;;;;5040610;28;20037;-58
2021/08/09 05:51:43;;;;;;;3.28;1.70;;;16.80;99.90;;;;;;5047551;28;20769;-59
2021/08/09 05:54:08;;;;;;;6.07;1.63;;;16.60;99.90;;;;;;5042642;28;20033;-59
2021/08/09 05:56:35;;;;;;;6.97;2.00;;;16.60;99.90;;;;;;5048341;28;20099;-59
2021/08/09 05:59:00;;;;;;;3.40;1.45;;;16.80;99.90;;;;;;5044402;28;20029;-55
2021/08/09 06:01:26;;;;;;;5.43;1.90;;;17.40;99.90;;;;;;5048052;28;20037;-58
2021/08/09 06:03:51;;;;;;;4.15;1.80;;;18.20;99.90;;;;;;5048147;28;20036;-59
2021/08/09 06:06:18;;;;;;;6.80;1.27;;;18.80;99.90;;;;;;5046896;28;20094;-60
2021/08/09 06:08:45;;;;;;;4.40;1.60;;;18.90;99.90;;;;;;5034716;28;20056;-57
2021/08/09 06:11:10;;;;;;;7.43;1.35;;;18.60;99.90;;;;;;5045615;28;20035;-56
2021/08/09 06:13:36;;;;;;;6.43;2.05;;;18.30;99.90;;;;;;5042689;28;20017;-57
2021/08/09 06:16:01;;;;;;;4.55;1.60;;;17.90;99.90;;;;;;5046123;28;20033;-57
2021/08/09 06:18:27;;;;;;;5.90;1.30;;;17.70;99.90;;;;;;5047934;28;20147;-59
2021/08/09 06:20:52;;;;;;;2.53;1.27;;;17.70;99.90;;;;;;5046666;28;20079;-58
2021/08/09 06:23:18;;;;;;;13.15;1.85;;;17.60;99.90;;;;;;5044833;28;20021;-58
2021/08/09 06:25:44;;;;;;;7.88;1.50;;;17.40;99.90;;;;;;5040611;28;20025;-59
2021/08/09 06:28:09;;;;;;;5.43;1.90;;;17.30;99.90;;;;;;5048012;28;20037;-59
2021/08/09 06:30:35;;;;;;;5.03;1.58;;;17.50;99.90;;;;;;5048327;28;20043;-59
2021/08/09 06:33:00;;;;;;;4.57;1.70;;;17.50;99.90;;;;;;5039747;28;20047;-59
2021/08/09 06:35:26;;;;;;;4.40;1.50;;;17.60;99.90;;;;;;5047755;28;20065;-57
2021/08/09 06:37:51;;;;;;;6.70;1.80;;;17.70;99.90;;;;;;5046222;28;20124;-59
2021/08/09 06:40:17;;;;;;;5.00;1.30;;;17.60;99.90;;;;;;5049424;28;20033;-57
2021/08/09 06:42:42;;;;;;;3.95;1.58;;;17.40;99.90;;;;;;5049758;28;20024;-59
2021/08/09 06:45:09;;;;;;;11.60;1.85;;;17.40;99.90;;;;;;5044264;28;20483;-58
2021/08/09 06:47:34;;;;;;;2.40;1.83;;;17.30;99.90;;;;;;5052907;28;20040;-56
2021/08/09 06:50:00;;;;;;;3.17;1.60;;;17.30;99.90;;;;;;5052138;28;20033;-57
2021/08/09 06:52:26;;;;;;;2.97;1.35;;;17.10;99.90;;;;;;5040490;28;20025;-57
2021/08/09 06:54:56;;;;;;;6.95;2.42;;;17.10;99.90;;;;;;5049255;28;20100;-59
2021/08/09 06:57:22;;;;;;;3.63;1.80;;;17.20;99.90;;;;;;5042747;28;20026;-58
2021/08/09 06:59:47;;;;;;;2.45;1.50;;;17.20;99.90;;;;;;5051172;28;20548;-58
2021/08/09 07:02:13;;;;;;;10.13;1.60;;;17.40;99.90;;;;;;5051051;28;20487;-57
2021/08/09 07:04:38;;;;;;;7.32;1.75;;;17.50;99.90;;;;;;5051115;28;20020;-59
2021/08/09 07:07:04;;;;;;;6.75;2.13;;;17.50;99.90;;;;;;5050871;28;20029;-59
2021/08/09 07:09:29;;;;;;;9.35;1.80;;;17.50;99.90;;;;;;5031693;28;20046;-59
2021/08/09 07:11:55;;;;;;;3.15;1.55;;;17.50;99.90;;;;;;5042120;28;20037;-59
2021/08/09 07:14:21;;;;;;;4.03;2.00;;;17.50;99.90;;;;;;5047252;28;20519;-59
2021/08/09 07:16:47;;;;;;;5.85;1.60;;;17.60;99.90;;;;;;5050428;28;20032;-59
2021/08/09 07:19:13;;;;;;;4.80;1.98;;;17.50;99.90;;;;;;5050896;28;20021;-59
2021/08/09 07:21:39;;;;;;;3.97;1.77;;;17.60;99.90;;;;;;5051213;28;20028;-59
2021/08/09 07:24:04;;;;;;;4.22;1.80;;;17.80;99.90;;;;;;5050206;28;20028;-59
2021/08/09 07:26:31;;;;;;;4.60;1.55;;;19.00;99.90;;;;;;5046867;28;20037;-59
2021/08/09 07:28:58;;;;;;;5.35;1.15;;;21.40;99.90;;;;;;5051275;28;20070;-58
2021/08/09 07:31:24;;;;;;;3.40;1.10;;;22.90;99.90;;;;;;5050777;28;20472;-58
2021/08/09 07:33:49;;;;;;;5.22;1.27;;;22.80;99.70;;;;;;5045622;28;20055;-58
2021/08/09 07:36:15;;;;;;;5.28;1.30;;;22.80;99.00;;;;;;5049294;28;20483;-56
2021/08/09 07:38:41;;;;;;;4.32;1.33;;;22.40;99.90;;;;;;5048799;28;20013;-58
2021/08/09 07:41:08;;;;;;;3.80;1.23;;;22.60;98.60;;;;;;5044881;28;20047;-56
2021/08/09 07:43:33;;;;;;;3.65;1.30;;;22.00;99.90;;;;;;5044914;28;20033;-55
2021/08/09 07:45:59;;;;;;;4.65;1.27;;;21.80;99.90;;;;;;5048226;28;20025;-58
2021/08/09 07:48:24;;;;;;;6.65;1.60;;;21.40;99.90;;;;;;5045803;28;20586;-58
2021/08/09 07:50:50;;;;;;;2.88;1.33;;;21.00;99.90;;;;;;5047142;28;20114;-58
2021/08/09 07:53:16;;;;;;;6.35;1.15;;;20.70;99.90;;;;;;5041232;28;20029;-57
2021/08/09 07:55:42;;;;;;;3.83;1.30;;;20.90;99.90;;;;;;5043285;28;20018;-58
2021/08/09 07:58:07;;;;;;;3.15;1.30;;;21.30;99.90;;;;;;5048646;28;20196;-57
2021/08/09 08:00:33;;;;;;;6.65;1.30;;;21.40;99.90;;;;;;5044049;28;20033;-56
2021/08/09 08:03:00;;;;;;;3.88;1.17;;;21.80;99.90;;;;;;5048133;28;20028;-58
2021/08/09 08:05:26;;;;;;;6.82;1.50;;;22.10;99.90;;;;;;5048130;28;20028;-58
2021/08/09 08:07:51;;;;;;;4.75;1.40;;;21.80;99.90;;;;;;5046966;28;20102;-57
2021/08/09 08:10:17;;;;;;;6.15;1.60;;;21.50;99.90;;;;;;5026771;28;20175;-58
2021/08/09 08:12:42;;;;;;;7.97;1.38;;;21.00;99.90;;;;;;5041466;28;20021;-58
2021/08/09 08:15:08;;;;;;;8.85;1.75;;;20.80;99.90;;;;;;5047140;28;20029;-58
2021/08/09 08:17:34;;;;;;;6.07;1.45;;;21.10;99.90;;;;;;5046148;28;20025;-58
2021/08/09 08:20:00;;;;;;;5.28;1.10;;;21.80;99.90;;;;;;5052820;28;20070;-58
2021/08/09 08:22:25;;;;;;;2.55;1.20;;;21.60;99.90;;;;;;5045347;28;20071;-58
2021/08/09 08:24:51;;;;;;;2.78;1.20;;;21.80;99.90;;;;;;5047502;28;20032;-58
2021/08/09 08:27:17;;;;;;;5.70;1.38;;;22.10;99.70;;;;;;5049173;28;20052;-57
2021/08/09 08:29:42;;;;;;;6.03;1.50;;;22.00;99.40;;;;;;5045248;28;20021;-58
2021/08/09 08:32:08;;;;;;;3.50;1.40;;;21.90;98.90;;;;;;5039013;28;20492;-58
2021/08/09 08:34:34;;;;;;;8.65;2.15;;;22.00;99.90;;;;;;5049540;28;20037;-58
2021/08/09 08:37:00;;;;;;;3.65;1.38;;;22.10;99.30;;;;;;5047355;28;20063;-58
2021/08/09 08:39:25;;;;;;;5.32;1.27;;;21.80;99.20;;;;;;5044779;28;20033;-57
2021/08/09 08:41:52;;;;;;;6.20;1.65;;;22.20;98.80;;;;;;5045928;28;20029;-58
2021/08/09 08:44:20;;;;;;;4.78;1.30;;;22.40;98.70;;;;;;5048191;28;20043;-58
2021/08/09 08:46:46;;;;;;;6.60;1.70;;;23.10;99.50;;;;;;5044195;28;20035;-59
2021/08/09 08:49:16;;;;;;;3.75;1.30;;;24.40;96.70;;;;;;5053461;28;20021;-59
2021/08/09 08:51:43;;;;;;;4.82;1.15;;;25.30;95.30;;;;;;5045946;28;20503;-59
2021/08/09 08:54:09;;;;;;;4.60;1.50;;;25.90;95.20;;;;;;5046345;28;20032;-58
2021/08/09 08:56:38;;;;;;;5.75;1.30;;;26.00;93.20;;;;;;5049264;28;20403;-59
2021/08/09 08:59:06;;;;;;;4.13;1.58;;;25.60;94.30;;;;;;5049043;28;20522;-58
2021/08/09 09:01:36;;;;;;;4.22;1.27;;;25.10;94.70;;;;;;5044468;28;20022;-58
2021/08/09 09:04:32;;;;;;;2.60;1.00;;;24.50;95.30;;;;;;5046935;28;20029;-57
2021/08/09 09:07:01;;;;;;;4.25;1.48;;;24.30;95.70;;;;;;5048602;28;20021;-59
2021/08/09 09:09:29;;;;;;;7.00;1.60;;;24.30;95.60;;;;;;5029874;28;20060;-58
2021/08/09 09:11:54;;;;;;;3.22;1.35;;;24.50;94.60;;;;;;5044993;28;20033;-58
2021/08/09 09:14:31;;;;;;;3.65;1.17;;;24.30;94.40;;;;;;5044051;28;20036;-57
2021/08/09 09:16:57;;;;;;;4.50;1.48;;;24.10;95.30;;;;;;5042449;28;20029;-58
2021/08/09 09:19:38;;;;;;;5.28;1.38;;;24.00;96.00;;;;;;5042783;28;20036;-56
2021/08/09 09:22:09;;;;;;;6.45;1.70;;;24.20;95.30;;;;;;5050596;28;20033;-58
2021/08/09 09:24:36;;;;;;;6.25;1.25;;;25.50;95.40;;;;;;5042558;28;20021;-59
2021/08/09 09:27:07;;;;;;;2.55;1.20;;;26.80;93.50;;;;;;5045965;28;20101;-59
2021/08/09 09:29:40;;;;;;;3.67;1.60;;;26.70;92.10;;;;;;5028052;28;20112;-59
2021/08/09 09:32:16;;;;;;;;;;;26.20;91.90;;;;;;5049049;28;20646;-58
2021/08/09 09:34:54;;;;;;;3.58;1.23;;;25.10;90.80;;;;;;5041463;28;19913;-56
2021/08/09 09:37:29;;;;;;;3.58;1.20;;;24.40;91.70;;;;;;5042834;28;20107;-57
2021/08/09 09:40:21;;;;;;;2.50;0.98;;;23.30;93.30;;;;;;5046781;28;20025;-58
2021/08/09 09:42:48;;;;;;;3.25;1.27;;;23.10;94.20;;;;;;5041297;28;20036;-59
2021/08/09 09:45:28;;;;;;;4.65;1.42;;;22.90;94.20;;;;;;5051354;28;20028;-57
2021/08/09 09:48:01;;;;;;;4.18;1.17;;;23.30;95.00;;;;;;5046709;28;20051;-57
2021/08/09 09:50:27;;;;;;;3.88;1.42;;;23.60;95.10;;;;;;5047386;28;20036;-57
2021/08/09 09:52:53;;;;;;;4.30;1.25;;;23.60;95.50;;;;;;5043344;28;20472;-57
2021/08/09 09:55:18;;;;;;;3.55;1.40;;;23.50;93.90;;;;;;5050187;28;20028;-57
2021/08/09 09:57:46;;;;;;;3.65;1.30;;;23.30;94.80;;;;;;5046457;28;20033;-58
2021/08/09 10:00:17;;;;;;;4.25;1.30;;;23.40;94.00;;;;;;5041245;28;20431;-59
2021/08/09 10:02:47;;;;;;;2.88;1.38;;;23.40;94.30;;;;;;5043096;28;20037;-56
2021/08/09 10:05:14;;;;;;;5.45;1.70;;;23.40;94.20;;;;;;5046780;28;20025;-58
2021/08/09 10:07:41;;;;;;;4.43;1.48;;;23.40;94.60;;;;;;5047226;28;20031;-58
2021/08/09 10:10:09;;;;;;;3.17;1.30;;;23.50;93.50;;;;;;5026301;28;20075;-58
2021/08/09 10:12:36;;;;;;;8.80;1.60;;;23.30;93.80;;;;;;5044132;28;20025;-57
2021/08/09 10:15:02;;;;;;;4.30;1.20;;;23.10;93.80;;;;;;5041332;28;20037;-58
2021/08/09 10:17:29;;;;;;;3.50;1.38;;;22.80;94.30;;;;;;5051561;28;20025;-57
2021/08/09 10:20:04;;;;;;;5.85;1.33;;;22.60;95.20;;;;;;5052987;28;20039;-58
2021/08/09 10:22:29;;;;;;;3.42;1.25;;;22.70;93.70;;;;;;5052752;28;20145;-58
2021/08/09 10:24:56;;;;;;;2.15;1.02;;;23.10;94.00;;;;;;5048314;28;20127;-58
2021/08/09 10:27:46;;;;;;;3.55;1.08;;;22.90;93.80;;;;;;5050684;28;20029;-57
2021/08/09 10:30:20;;;;;;;4.78;1.55;;;23.30;94.20;;;;;;5041330;28;20079;-51
2021/08/09 10:32:56;;;;;;;3.42;1.42;;;23.40;93.80;;;;;;5052264;28;20028;-57
2021/08/09 10:35:38;;;;;;;4.28;1.30;;;23.10;93.20;;;;;;5045930;28;20033;-58
2021/08/09 10:38:17;;;;;;;5.03;1.10;;;23.10;93.20;;;;;;5043303;28;21259;-57
2021/08/09 10:40:44;;;;;;;5.00;1.17;;;23.20;93.40;;;;;;5050279;28;20056;-58
2021/08/09 10:43:10;;;;;;;10.57;1.27;;;22.90;93.20;;;;;;5045965;28;20045;-58
2021/08/09 10:45:41;;;;;;;7.07;1.77;;;22.70;94.20;;;;;;5051298;28;20026;-58
2021/08/09 10:48:09;;;;;;;3.80;1.58;;;22.70;93.30;;;;;;5048813;28;20064;-58
2021/08/09 10:50:39;;;;;;;2.85;1.08;;;22.60;92.00;;;;;;5038058;28;20025;-58
2021/08/09 10:53:24;;;;;;;11.10;1.40;;;22.30;92.00;;;;;;5039743;28;20100;-57
2021/08/09 10:55:54;;;;;;;4.30;1.30;;;22.50;93.30;;;;;;5051703;28;20035;-58
2021/08/09 10:58:45;;;;;;;3.90;1.75;;;22.60;92.90;;;;;;5049055;28;20013;-58
2021/08/09 11:01:13;;;;;;;2.97;1.02;;;22.70;93.00;;;;;;5041148;28;20029;-57
2021/08/09 11:04:04;;;;;;;6.03;1.13;;;22.80;93.30;;;;;;5044598;28;20311;-58
2021/08/09 11:06:52;;;;;;;4.38;1.20;;;22.90;93.10;;;;;;5049582;28;20033;-58
2021/08/09 11:09:30;;;;;;;7.47;1.48;;;23.10;92.60;;;;;;5048793;28;20053;-57
2021/08/09 11:12:08;;;;;;;3.03;1.15;;;23.30;92.50;;;;;;5032464;28;20060;-58
2021/08/09 11:17:37;;;;;;;4.85;1.15;;;23.90;91.90;;;;;;5048924;28;20072;-59
2021/08/09 11:20:27;;;;;;;3.47;1.05;;;23.80;90.20;;;;;;5047804;28;20039;-58
2021/08/09 11:23:10;;;;;;;6.18;1.17;;;23.70;90.80;;;;;;5044509;28;20356;-57
2021/08/09 11:25:48;;;;;;;5.80;1.17;;;23.60;91.40;;;;;;5043314;28;20036;-59
2021/08/09 11:28:18;;;;;;;6.40;1.63;;;23.90;91.00;;;;;;5054642;28;20048;-58
2021/08/09 11:30:49;;;;;;;4.03;1.08;;;23.70;90.60;;;;;;5053461;28;20033;-57
2021/08/09 11:33:34;;;;;;;2.45;0.80;;;23.80;90.00;;;;;;5050242;28;20092;-58
2021/08/09 11:36:06;;;;;;;2.13;1.30;;;23.40;91.30;;;;;;5053845;28;20032;-58
2021/08/09 11:38:48;;;;;;;2.30;0.95;;;23.30;91.50;;;;;;5049983;28;20059;-57
2021/08/09 11:41:17;;;;;;;4.18;1.00;;;23.30;90.60;;;;;;5049055;28;20108;-57
2021/08/09 11:43:44;;;;;;;2.97;1.38;;;23.00;91.10;;;;;;5048026;28;20032;-57
2021/08/09 11:46:15;;;;;;;5.13;1.40;;;22.80;91.70;;;;;;5048537;28;20037;-58
2021/08/09 11:48:44;;;;;;;4.93;1.52;;;22.70;91.70;;;;;;5051643;28;20116;-59
2021/08/09 11:51:23;;;;;;;3.80;0.98;;;22.60;91.70;;;;;;5052231;28;20025;-59
2021/08/09 11:53:51;;;;;;;2.53;0.93;;;22.60;91.90;;;;;;5049789;28;20021;-58
2021/08/09 11:56:38;;;;;;;3.65;1.67;;;22.60;92.00;;;;;;5032840;28;20105;-57
2021/08/09 11:59:14;;;;;;;2.70;1.05;;;22.80;92.10;;;;;;5050614;28;20029;-58
2021/08/09 12:01:47;;;;;;;2.38;0.93;;;23.00;92.10;;;;;;5051331;28;20061;-57
2021/08/09 12:04:13;;;;;;;;;;;23.10;92.40;;;;;;5048354;28;20400;-58
2021/08/09 12:06:57;;;;;;;4.72;1.20;;;23.50;92.10;;;;;;5049803;28;19909;-57
2021/08/09 12:09:35;;;;;;;;;;;23.70;91.70;;;;;;5050122;28;20033;-57
2021/08/09 12:12:04;;;;;;;6.20;1.27;;;24.00;90.80;;;;;;5034942;28;19917;-58
2021/08/09 12:14:31;;;;;;;2.90;0.98;;;23.70;91.00;;;;;;5050168;28;20416;-58
2021/08/09 12:16:58;;;;;;;2.75;1.05;;;23.60;90.10;;;;;;5050175;28;20024;-58
2021/08/09 12:19:44;;;;;;;2.67;0.85;;;23.50;91.10;;;;;;5050270;28;20024;-57
2021/08/09 12:22:17;;;;;;;4.20;1.30;;;23.50;90.90;;;;;;5050475;28;20033;-58
2021/08/09 12:25:03;;;;;;;3.00;1.23;;;23.70;91.20;;;;;;5049173;28;20078;-58
2021/08/09 12:27:30;;;;;;;3.13;0.93;;;23.90;91.40;;;;;;5026621;28;20033;-58
2021/08/09 12:30:08;;;;;;;2.50;1.10;;;23.80;90.10;;;;;;5051568;28;20027;-58
2021/08/09 12:32:35;;;;;;;5.07;1.00;;;24.00;90.00;;;;;;5050662;28;20045;-57
2021/08/09 12:35:02;;;;;;;3.60;1.02;;;24.20;88.50;;;;;;5049152;28;20057;-53
2021/08/09 12:37:29;;;;;;;4.10;1.00;;;24.30;89.90;;;;;;5048823;28;20533;-58
2021/08/09 12:40:16;;;;;;;10.85;1.45;;;24.50;88.30;;;;;;5050431;28;20021;-56
2021/08/09 12:42:44;;;;;;;1.65;0.73;;;24.40;86.50;;;;;;5050275;28;20056;-58
2021/08/09 12:45:10;;;;;;;3.40;0.95;;;24.30;89.60;;;;;;5048656;28;20483;-57
2021/08/09 12:47:36;;;;;;;2.03;0.95;;;24.10;88.10;;;;;;5042796;28;20052;-58
2021/08/09 12:50:02;;;;;;;4.25;1.10;;;24.10;90.00;;;;;;5050414;28;20032;-57
2021/08/09 12:52:27;;;;;;;2.80;0.98;;;23.90;87.80;;;;;;5050485;28;20021;-58
2021/08/09 12:54:53;;;;;;;2.80;1.00;;;24.00;87.30;;;;;;5049499;28;20430;-58
2021/08/09 12:57:18;;;;;;;9.93;1.20;;;24.20;87.40;;;;;;5050515;28;20039;-59